Home > Products > Valid Products > MTR

000
SAUS43 KBIS 271854
MTRN60
METAR KN60 271852Z AUTO 15010KT M12/M13 A3010 RMK AO1 SLP240
T11171133





000
SAUS43 KBIS 271754
MTRN60
METAR KN60 271752Z AUTO 15010KT M12/M13 A3014 RMK AO1 SLP255
T11221133 11122 21150 58031





000
SAUS43 KBIS 271654
MTRN60
METAR KN60 271652Z AUTO 16010KT M12/M13 A3019 RMK AO1 SLP272
T11221133





000
SAUS43 KBIS 271555
MTRN60
METAR KN60 271552Z AUTO 14008KT M14/M16 A3021 RMK AO1 SLP281
T11441156





000
SAUS43 KBIS 271454
MTRN60
METAR KN60 271452Z AUTO 15011KT M14/M16 A3024 RMK AO1 SLP293
T11441156 56020





000
SAUS43 KBIS 271354
MTRN60
METAR KN60 271352Z AUTO 16010KT M14/M16 A3026 RMK AO1 SLP302
T11391156





000
SAUS43 KBIS 271253
MTRN60
METAR KN60 271252Z AUTO 19013KT M13/M15 A3028 RMK AO1 SLP303
T11281150





000
SAUS43 KBIS 271154
MTRN60
METAR KN60 271152Z AUTO 17007KT M13/M14 A3030 RMK AO1 SLP311 70001
T11281144 11128 21183 56023





000
SAUS43 KBIS 271054
MTRN60
METAR KN60 271052Z AUTO 17010KT M13/M15 A3032 RMK AO1 SLP318
T11331150





000
SAUS43 KBIS 270954
MTRN60
METAR KN60 270952Z AUTO 16011KT M13/M15 A3035 RMK AO1 SLP324
T11331150





000
SAUS43 KBIS 270954
MTRN60
METAR KN60 270952Z AUTO 16011KT M13/M15 A3035 RMK AO1 SLP324
T11331150





000
SAUS43 KBIS 270854
MTRN60
METAR KN60 270852Z AUTO 16009KT M14/M15 A3037 RMK AO1 SLP333
T11391150 56013





000
SAUS43 KBIS 270754
MTRN60
METAR KN60 270752Z AUTO 09004KT M17/M19 A3038 RMK AO1 SLP337
T11671189





000
SAUS43 KBIS 270654
MTRN60
METAR KN60 270652Z AUTO 09007KT M18/M20 A3039 RMK AO1 SLP343
T11831200





000
SAUS43 KBIS 270554
MTRN60
METAR KN60 270552Z AUTO 09008KT M18/M20 A3041 RMK AO1 SLP349
T11831200 11183 21239 411171239 56005





000
SAUS43 KBIS 270454
MTRN60
METAR KN60 270452Z AUTO 11005KT M19/M21 A3042 RMK AO1 SLP353
T11891211





000
SAUS43 KBIS 270454
MTRN60
METAR KN60 270452Z AUTO 11005KT M19/M21 A3042 RMK AO1 SLP353
T11891211





000
SAUS43 KBIS 270354
MTRN60
METAR KN60 270352Z AUTO 08006KT M19/M22 A3042 RMK AO1 SLP353
T11941217





000
SAUS43 KBIS 270354
MTRN60
METAR KN60 270352Z AUTO 08006KT M19/M22 A3042 RMK AO1 SLP353
T11941217





000
SAUS43 KBIS 270253
MTRN60
METAR KN60 270252Z AUTO 02003KT M22/M29 A3043 RMK AO1 SLP359
T12171294 53002





000
SAUS43 KBIS 270154
MTRN60
METAR KN60 270152Z AUTO 04004KT M23/M26 A3041 RMK AO1 SLP355
T12331261





000
SAUS43 KBIS 270053
MTRN60
METAR KN60 270052Z AUTO 05003KT M20/M22 A3042 RMK AO1 SLP354
T12001222





000
SAUS43 KBIS 262354
MTRN60
METAR KN60 262352Z AUTO 07003KT M19/M22 A3042 RMK AO1 SLP354
T11891217 11133 21189 53014





000
SAUS43 KBIS 262253
MTRN60
METAR KN60 262252Z AUTO 03003KT M18/M21 A3041 RMK AO1 SLP347
T11781211





000
SAUS43 KBIS 262154
MTRN60
METAR KN60 262152Z AUTO 02005KT M14/M18 A3039 RMK AO1 SLP338
T11441183





000
SAUS43 KBIS 262154
MTRN60
METAR KN60 262152Z AUTO 02005KT M14/M18 A3039 RMK AO1 SLP338
T11441183





000
SAUS43 KBIS 262053
MTRN60
METAR KN60 262052Z AUTO 01004KT M14/M17 A3038 RMK AO1 SLP335
T11391172 53005





000
SAUS43 KBIS 261954
MTRN60
METAR KN60 261952Z AUTO 02006KT M14/M17 A3037 RMK AO1 SLP333
T11391172





000
SAUS43 KBIS 261853
MTRN60
METAR KN60 261852Z AUTO 05005KT M13/M17 A3037 RMK AO1 SLP331
T11331167





000
SAUS43 KBIS 261754
MTRN60
METAR KN60 261752Z AUTO 02004KT M13/M17 A3036 RMK AO1 SLP328 60001
T11331167 11133 21144 51016





000
SAUS43 KBIS 261653
MTRN60
METAR KN60 261652Z AUTO 05003KT M14/M17 A3036 RMK AO1 SLP324
T11391167





000
SAUS43 KBIS 261554
MTRN60
METAR KN60 261552Z AUTO 06003KT M14/M17 A3033 RMK AO1 SLP316
T11391167





000
SAUS43 KBIS 261453
MTRN60
METAR KN60 261452Z AUTO VRB03KT M14/M17 A3032 RMK AO1 SLP309 60001
T11441167 53020





000
SAUS43 KBIS 261354
MTRN60
METAR KN60 261352Z AUTO 04004KT M14/M17 A3029 RMK AO1 SLP299 P0001
T11391167





000
SAUS43 KBIS 261253
MTRN60
METAR KN60 261252Z AUTO 03003KT M14/M16 A3027 RMK AO1 SLP292
T11391161





000
SAUS43 KBIS 261154
MTRN60
METAR KN60 261152Z AUTO 03006KT M14/M16 A3025 RMK AO1 SLP283 70030
T11391161 11111 21156 50004





000
SAUS43 KBIS 261053
MTRN60
METAR KN60 261052Z AUTO 03005KT M14/M17 A3025 RMK AO1 SLP281
T11391167





000
SAUS43 KBIS 260954
MTRN60
METAR KN60 260952Z AUTO 36004KT M14/M17 A3025 RMK AO1 SLP279
T11391167





000
SAUS43 KBIS 260954
MTRN60
METAR KN60 260952Z AUTO 36004KT M14/M17 A3025 RMK AO1 SLP279
T11391167





000
SAUS43 KBIS 260854
MTRN60
METAR KN60 260852Z AUTO 35006KT M14/M16 A3024 RMK AO1 SLP276
T11391161 51029





000
SAUS43 KBIS 260754
MTRN60
METAR KN60 260752Z AUTO 36007KT M14/M16 A3021 RMK AO1 SLP266
T11441161





000
SAUS43 KBIS 260654
MTRN60
METAR KN60 260652Z AUTO 36003KT M13/M16 A3018 RMK AO1 SLP257
T11331156





000
SAUS43 KBIS 260554
MTRN60
METAR KN60 260552Z AUTO 01008G15KT M11/M13 A3015 RMK AO1 SLP243
60002 T11111133 11039 21111 410061111 51048





000
SAUS43 KBIS 260453
MTRN60
METAR KN60 260452Z AUTO 02009G16KT M09/M12 A3011 RMK AO1 SLP226
T10941117





000
SAUS43 KBIS 260354
MTRN60
METAR KN60 260352Z AUTO 03013G21KT M09/M11 A3005 RMK AO1 SLP208
T10941111





000
SAUS43 KBIS 260253
MTRN60
METAR KN60 260252Z AUTO 04009G21KT M08/M10 A3000 RMK AO1 SLP189
60002 T10781100 51069





000
SAUS43 KBIS 260154
MTRN60
METAR KN60 260152Z AUTO 03016G24KT M07/M09 A2994 RMK AO1 PK WND
04028/0100 PRESRR SLP168 T10671089





000
SAUS43 KBIS 260053
MTRN60
METAR KN60 260052Z AUTO 03016G23KT M06/M08 A2986 RMK AO1 PRESRR
SLP139 P0002 T10611078





000
SAUS43 KBIS 252354
MTRN60
METAR KN60 252352Z AUTO 04015G24KT M03/M04 A2979 RMK AO1 SLP113
P0003 60023 T10331044 11006 21033 53038





000
SAUS43 KBIS 252254
MTRN60
METAR KN60 252252Z AUTO 06005KT M01/M01 A2972 RMK AO1 SLP088 P0005
T10111011





000
SAUS43 KBIS 252154
MTRN60
METAR KN60 252152Z AUTO 10006KT M01/M01 A2968 RMK AO1 SLP075 P0006
T10061011





000
SAUS43 KBIS 252154
MTRN60
METAR KN60 252152Z AUTO 10006KT M01/M01 A2968 RMK AO1 SLP075 P0006
T10061011





000
SAUS43 KBIS 252053
MTRN60
METAR KN60 252052Z AUTO 13006KT M01/M01 A2967 RMK AO1 SLP070 P0004
60009 T10061011 56014





000
SAUS43 KBIS 251954
MTRN60
METAR KN60 251952Z AUTO 16007KT M01/M01 A2967 RMK AO1 SLP071 P0003
T10061011





000
SAUS43 KBIS 251854
MTRN60
METAR KN60 251852Z AUTO 16009KT M01/M02 A2969 RMK AO1 SLP077 P0002
T10111017





000
SAUS43 KBIS 251754
MTRN60
METAR KN60 251752Z AUTO 15011KT M01/M02 A2971 RMK AO1 SLP084 P0001
60005 T10111017 11011 21039 58024





000
SAUS43 KBIS 251654
MTRN60
METAR KN60 251652Z AUTO 16009KT M01/M02 A2975 RMK AO1 SLP097 P0002
T10111022





000
SAUS43 KBIS 251654
MTRN60
METAR KN60 251652Z AUTO 16009KT M01/M02 A2975 RMK AO1 SLP097 P0002
T10111022





000
SAUS43 KBIS 251554
MTRN60
METAR KN60 251552Z AUTO 16009KT M02/M02 A2976 RMK AO1 SLP103 P0002
T10171022





000
SAUS43 KBIS 251454
MTRN60
METAR KN60 251452Z AUTO 17008KT M02/M03 A2979 RMK AO1 SLP113
T10171033 57019





000
SAUS43 KBIS 251354
MTRN60
METAR KN60 251352Z AUTO 20008KT M02/M04 A2981 RMK AO1 SLP122
T10221044





000
SAUS43 KBIS 251253
MTRN60
METAR KN60 251252Z AUTO 00000KT M03/M06 A2982 RMK AO1 SLP125
T10331056





000
SAUS43 KBIS 251154
MTRN60
METAR KN60 251152Z AUTO 00000KT M03/M05 A2984 RMK AO1 SLP135
T10281050 11011 21033 56021





000
SAUS43 KBIS 251054
MTRN60
METAR KN60 251052Z AUTO 08003KT M03/M06 A2986 RMK AO1 SLP139
T10281056





000
SAUS43 KBIS 251054
MTRN60
METAR KN60 251052Z AUTO 08003KT M03/M06 A2986 RMK AO1 SLP139
T10281056





000
SAUS43 KBIS 250954
MTRN60
METAR KN60 250952Z AUTO 36004KT M02/M06 A2989 RMK AO1 SLP150
T10221056





000
SAUS43 KBIS 250854
MTRN60
METAR KN60 250852Z AUTO 35006KT M02/M06 A2991 RMK AO1 SLP156
T10221056 58004





000
SAUS43 KBIS 250754
MTRN60
METAR KN60 250752Z AUTO 31010KT M02/M06 A2993 RMK AO1 SLP162
T10171056





000
SAUS43 KBIS 250654
MTRN60
METAR KN60 250652Z AUTO 32011KT M01/M05 A2993 RMK AO1 SLP161
T10111050





000
SAUS43 KBIS 250554
MTRN60
METAR KN60 250552Z AUTO 30011KT M01/M04 A2992 RMK AO1 SLP162
T10111039 11011 21061 410111150 56002





000
SAUS43 KBIS 250454
MTRN60
METAR KN60 250452Z AUTO 31012KT M02/M04 A2993 RMK AO1 SLP165
T10171039





000
SAUS43 KBIS 250354
MTRN60
METAR KN60 250352Z AUTO 28010KT M02/M06 A2992 RMK AO1 SLP166
T10221056





000
SAUS43 KBIS 250254
MTRN60
METAR KN60 250252Z AUTO 27009KT M04/M08 A2993 RMK AO1 SLP171
T10391078 58012





000
SAUS43 KBIS 250154
MTRN60
METAR KN60 250152Z AUTO 26005KT M05/M08 A2995 RMK AO1 SLP179
T10501083





000
SAUS43 KBIS 250053
MTRN60
METAR KN60 250052Z AUTO 29010KT M05/M09 A2997 RMK AO1 SLP187
T10501089





000
SAUS43 KBIS 242355
MTRN60
METAR KN60 242352Z AUTO 28008KT M06/M10 A2997 RMK AO1 SLP187
T10611100 11039 21072 51007





000
SAUS43 KBIS 242253
MTRN60
METAR KN60 242252Z AUTO 30008KT M06/M11 A2997 RMK AO1 SLP187
T10611106





000
SAUS43 KBIS 242154
MTRN60
METAR KN60 242152Z AUTO 30013KT M04/M12 A2996 RMK AO1 SLP181
T10441122





000
SAUS43 KBIS 242154
MTRN60
METAR KN60 242152Z AUTO 30013KT M04/M12 A2996 RMK AO1 SLP181
T10441122





000
SAUS43 KBIS 242053
MTRN60
METAR KN60 242052Z AUTO 30013KT M04/M13 A2994 RMK AO1 SLP176
T10391133 53011





000
SAUS43 KBIS 241954
MTRN60
METAR KN60 241952Z AUTO 30014KT M04/M17 A2994 RMK AO1 SLP174
T10441172





000
SAUS43 KBIS 241954
MTRN60
METAR KN60 241952Z AUTO 30014KT M04/M17 A2994 RMK AO1 SLP174
T10441172





    US Dept of Commerce
    National Oceanic and Atmospheric Administration
    National Weather Service
    1325 East West Highway
    Silver Spring, MD 20910
    Page Author: NWS Internet Services Team
Disclaimer
Information Quality
Credits
Glossary
Privacy Policy
Freedom of Information Act (FOIA)
About Us
Career Opportunities